sensor_id;sensor_type;location;lat;lon;timestamp;P1;durP1;ratioP1;P2;durP2;ratioP2
13743;SDS011;6943;52.368;9.966;2024-02-15T00:02:14;8.73;;;7.83;;
13743;SDS011;6943;52.368;9.966;2024-02-15T00:04:40;9.20;;;8.30;;
13743;SDS011;6943;52.368;9.966;2024-02-15T00:07:08;9.90;;;8.90;;
13743;SDS011;6943;52.368;9.966;2024-02-15T00:09:34;11.40;;;9.13;;
13743;SDS011;6943;52.368;9.966;2024-02-15T00:12:00;11.73;;;10.20;;
13743;SDS011;6943;52.368;9.966;2024-02-15T00:14:26;12.03;;;10.70;;
13743;SDS011;6943;52.368;9.966;2024-02-15T00:16:56;12.23;;;10.67;;
13743;SDS011;6943;52.368;9.966;2024-02-15T00:19:22;12.50;;;11.20;;
13743;SDS011;6943;52.368;9.966;2024-02-15T00:21:48;12.90;;;11.60;;
13743;SDS011;6943;52.368;9.966;2024-02-15T00:24:14;13.47;;;11.97;;
13743;SDS011;6943;52.368;9.966;2024-02-15T00:26:40;14.33;;;12.83;;
13743;SDS011;6943;52.368;9.966;2024-02-15T00:29:09;13.13;;;11.83;;
13743;SDS011;6943;52.368;9.966;2024-02-15T00:31:36;13.17;;;11.70;;
13743;SDS011;6943;52.368;9.966;2024-02-15T00:34:03;15.73;;;12.73;;
13743;SDS011;6943;52.368;9.966;2024-02-15T00:36:29;15.03;;;13.43;;
13743;SDS011;6943;52.368;9.966;2024-02-15T00:38:55;14.33;;;12.93;;
13743;SDS011;6943;52.368;9.966;2024-02-15T00:41:21;14.87;;;13.37;;
13743;SDS011;6943;52.368;9.966;2024-02-15T00:43:47;15.20;;;13.43;;
13743;SDS011;6943;52.368;9.966;2024-02-15T00:46:13;14.03;;;12.60;;
13743;SDS011;6943;52.368;9.966;2024-02-15T00:48:39;13.90;;;12.43;;
13743;SDS011;6943;52.368;9.966;2024-02-15T00:51:06;14.83;;;13.30;;
13743;SDS011;6943;52.368;9.966;2024-02-15T00:53:32;13.77;;;12.40;;
13743;SDS011;6943;52.368;9.966;2024-02-15T00:55:58;14.37;;;12.87;;
13743;SDS011;6943;52.368;9.966;2024-02-15T00:58:23;14.87;;;12.27;;
13743;SDS011;6943;52.368;9.966;2024-02-15T01:00:51;13.27;;;11.87;;
13743;SDS011;6943;52.368;9.966;2024-02-15T01:03:18;13.73;;;12.17;;
13743;SDS011;6943;52.368;9.966;2024-02-15T01:05:44;12.40;;;11.20;;
13743;SDS011;6943;52.368;9.966;2024-02-15T01:08:10;13.80;;;12.30;;
13743;SDS011;6943;52.368;9.966;2024-02-15T01:10:36;12.67;;;11.37;;
13743;SDS011;6943;52.368;9.966;2024-02-15T01:13:02;13.53;;;12.13;;
13743;SDS011;6943;52.368;9.966;2024-02-15T01:15:28;15.07;;;11.87;;
13743;SDS011;6943;52.368;9.966;2024-02-15T01:17:54;13.70;;;12.30;;
13743;SDS011;6943;52.368;9.966;2024-02-15T01:20:20;12.93;;;11.53;;
13743;SDS011;6943;52.368;9.966;2024-02-15T01:22:46;13.40;;;11.97;;
13743;SDS011;6943;52.368;9.966;2024-02-15T01:25:12;14.50;;;12.73;;
13743;SDS011;6943;52.368;9.966;2024-02-15T01:27:40;13.50;;;12.10;;
13743;SDS011;6943;52.368;9.966;2024-02-15T01:30:07;13.03;;;11.73;;
13743;SDS011;6943;52.368;9.966;2024-02-15T01:32:33;12.40;;;11.10;;
13743;SDS011;6943;52.368;9.966;2024-02-15T01:34:59;13.13;;;11.70;;
13743;SDS011;6943;52.368;9.966;2024-02-15T01:37:25;12.77;;;11.07;;
13743;SDS011;6943;52.368;9.966;2024-02-15T01:39:51;11.77;;;10.37;;
13743;SDS011;6943;52.368;9.966;2024-02-15T01:42:17;12.87;;;10.63;;
13743;SDS011;6943;52.368;9.966;2024-02-15T01:44:43;11.43;;;10.23;;
13743;SDS011;6943;52.368;9.966;2024-02-15T01:47:13;12.23;;;10.63;;
13743;SDS011;6943;52.368;9.966;2024-02-15T01:49:39;15.37;;;11.83;;
13743;SDS011;6943;52.368;9.966;2024-02-15T01:52:06;13.13;;;11.57;;
13743;SDS011;6943;52.368;9.966;2024-02-15T01:54:34;14.33;;;11.57;;
13743;SDS011;6943;52.368;9.966;2024-02-15T01:57:01;12.13;;;10.57;;
13743;SDS011;6943;52.368;9.966;2024-02-15T01:59:27;11.17;;;9.87;;
13743;SDS011;6943;52.368;9.966;2024-02-15T02:01:53;12.47;;;10.67;;
13743;SDS011;6943;52.368;9.966;2024-02-15T02:04:20;12.30;;;11.00;;
13743;SDS011;6943;52.368;9.966;2024-02-15T02:06:46;11.87;;;9.97;;
13743;SDS011;6943;52.368;9.966;2024-02-15T02:09:12;13.53;;;11.13;;
13743;SDS011;6943;52.368;9.966;2024-02-15T02:11:39;13.90;;;10.40;;
13743;SDS011;6943;52.368;9.966;2024-02-15T02:14:05;11.90;;;10.10;;
13743;SDS011;6943;52.368;9.966;2024-02-15T02:16:31;11.70;;;10.20;;
13743;SDS011;6943;52.368;9.966;2024-02-15T02:18:57;12.37;;;10.40;;
13743;SDS011;6943;52.368;9.966;2024-02-15T02:21:24;11.20;;;10.03;;
13743;SDS011;6943;52.368;9.966;2024-02-15T02:23:57;10.90;;;9.80;;
13743;SDS011;6943;52.368;9.966;2024-02-15T02:26:24;12.20;;;9.53;;
13743;SDS011;6943;52.368;9.966;2024-02-15T02:28:50;11.33;;;9.10;;
13743;SDS011;6943;52.368;9.966;2024-02-15T02:31:19;9.27;;;8.37;;
13743;SDS011;6943;52.368;9.966;2024-02-15T02:33:47;9.17;;;8.27;;
13743;SDS011;6943;52.368;9.966;2024-02-15T02:36:13;9.70;;;8.70;;
13743;SDS011;6943;52.368;9.966;2024-02-15T02:38:40;9.40;;;7.73;;
13743;SDS011;6943;52.368;9.966;2024-02-15T02:41:06;9.27;;;8.30;;
13743;SDS011;6943;52.368;9.966;2024-02-15T02:43:32;8.37;;;7.57;;
13743;SDS011;6943;52.368;9.966;2024-02-15T02:45:58;8.70;;;7.83;;
13743;SDS011;6943;52.368;9.966;2024-02-15T02:48:24;8.90;;;8.00;;
13743;SDS011;6943;52.368;9.966;2024-02-15T02:50:50;8.07;;;7.27;;
13743;SDS011;6943;52.368;9.966;2024-02-15T02:53:16;8.53;;;7.70;;
13743;SDS011;6943;52.368;9.966;2024-02-15T02:55:42;8.37;;;6.97;;
13743;SDS011;6943;52.368;9.966;2024-02-15T02:58:08;8.67;;;7.77;;
13743;SDS011;6943;52.368;9.966;2024-02-15T03:00:34;7.50;;;6.70;;
13743;SDS011;6943;52.368;9.966;2024-02-15T03:03:00;7.13;;;6.43;;
13743;SDS011;6943;52.368;9.966;2024-02-15T03:05:26;7.37;;;6.67;;
13743;SDS011;6943;52.368;9.966;2024-02-15T03:07:52;7.33;;;6.63;;
13743;SDS011;6943;52.368;9.966;2024-02-15T03:10:18;7.80;;;6.73;;
13743;SDS011;6943;52.368;9.966;2024-02-15T03:12:44;8.70;;;7.13;;
13743;SDS011;6943;52.368;9.966;2024-02-15T03:15:13;6.20;;;5.53;;
13743;SDS011;6943;52.368;9.966;2024-02-15T03:17:40;6.80;;;6.10;;
13743;SDS011;6943;52.368;9.966;2024-02-15T03:20:06;7.07;;;5.83;;
13743;SDS011;6943;52.368;9.966;2024-02-15T03:22:45;7.07;;;6.03;;
13743;SDS011;6943;52.368;9.966;2024-02-15T03:25:11;7.90;;;5.80;;
13743;SDS011;6943;52.368;9.966;2024-02-15T03:27:37;7.03;;;5.90;;
13743;SDS011;6943;52.368;9.966;2024-02-15T03:30:03;7.10;;;6.40;;
13743;SDS011;6943;52.368;9.966;2024-02-15T03:32:29;6.63;;;5.93;;
13743;SDS011;6943;52.368;9.966;2024-02-15T03:34:55;8.10;;;6.00;;
13743;SDS011;6943;52.368;9.966;2024-02-15T03:37:21;10.00;;;7.00;;
13743;SDS011;6943;52.368;9.966;2024-02-15T03:39:47;6.77;;;6.17;;
13743;SDS011;6943;52.368;9.966;2024-02-15T03:42:13;7.80;;;6.30;;
13743;SDS011;6943;52.368;9.966;2024-02-15T03:44:40;6.87;;;6.20;;
13743;SDS011;6943;52.368;9.966;2024-02-15T03:47:06;7.30;;;6.50;;
13743;SDS011;6943;52.368;9.966;2024-02-15T03:49:32;7.43;;;6.30;;
13743;SDS011;6943;52.368;9.966;2024-02-15T03:51:58;6.90;;;6.20;;
13743;SDS011;6943;52.368;9.966;2024-02-15T03:54:27;7.10;;;6.40;;
13743;SDS011;6943;52.368;9.966;2024-02-15T03:56:54;7.20;;;6.50;;
13743;SDS011;6943;52.368;9.966;2024-02-15T03:59:22;7.10;;;6.50;;
13743;SDS011;6943;52.368;9.966;2024-02-15T04:01:54;7.50;;;6.50;;
13743;SDS011;6943;52.368;9.966;2024-02-15T04:04:21;7.03;;;6.10;;
13743;SDS011;6943;52.368;9.966;2024-02-15T04:06:48;7.33;;;6.07;;
13743;SDS011;6943;52.368;9.966;2024-02-15T04:09:14;6.43;;;5.83;;
13743;SDS011;6943;52.368;9.966;2024-02-15T04:11:40;6.70;;;5.73;;
13743;SDS011;6943;52.368;9.966;2024-02-15T04:14:06;6.97;;;6.27;;
13743;SDS011;6943;52.368;9.966;2024-02-15T04:16:32;6.57;;;5.97;;
13743;SDS011;6943;52.368;9.966;2024-02-15T04:19:00;6.77;;;6.07;;
13743;SDS011;6943;52.368;9.966;2024-02-15T04:21:26;6.87;;;6.20;;
13743;SDS011;6943;52.368;9.966;2024-02-15T04:23:52;6.97;;;6.17;;
13743;SDS011;6943;52.368;9.966;2024-02-15T04:26:19;7.87;;;5.60;;
13743;SDS011;6943;52.368;9.966;2024-02-15T04:28:45;6.70;;;6.03;;
13743;SDS011;6943;52.368;9.966;2024-02-15T04:31:17;6.63;;;5.97;;
13743;SDS011;6943;52.368;9.966;2024-02-15T04:33:43;6.07;;;5.47;;
13743;SDS011;6943;52.368;9.966;2024-02-15T04:36:09;7.57;;;5.97;;
13743;SDS011;6943;52.368;9.966;2024-02-15T04:38:37;6.63;;;5.10;;
13743;SDS011;6943;52.368;9.966;2024-02-15T04:41:04;6.10;;;5.30;;
13743;SDS011;6943;52.368;9.966;2024-02-15T04:43:33;6.60;;;5.57;;
13743;SDS011;6943;52.368;9.966;2024-02-15T04:46:00;5.63;;;4.87;;
13743;SDS011;6943;52.368;9.966;2024-02-15T04:48:27;6.10;;;5.50;;
13743;SDS011;6943;52.368;9.966;2024-02-15T04:50:54;6.67;;;5.97;;
13743;SDS011;6943;52.368;9.966;2024-02-15T04:53:24;5.93;;;5.43;;
13743;SDS011;6943;52.368;9.966;2024-02-15T04:55:50;7.93;;;5.67;;
13743;SDS011;6943;52.368;9.966;2024-02-15T04:58:16;5.80;;;5.20;;
13743;SDS011;6943;52.368;9.966;2024-02-15T05:00:42;6.37;;;5.60;;
13743;SDS011;6943;52.368;9.966;2024-02-15T05:03:08;6.20;;;5.60;;
13743;SDS011;6943;52.368;9.966;2024-02-15T05:05:34;6.03;;;5.43;;
13743;SDS011;6943;52.368;9.966;2024-02-15T05:08:00;5.97;;;5.40;;
13743;SDS011;6943;52.368;9.966;2024-02-15T05:10:26;6.03;;;5.43;;
13743;SDS011;6943;52.368;9.966;2024-02-15T05:12:52;6.33;;;5.70;;
13743;SDS011;6943;52.368;9.966;2024-02-15T05:15:20;7.00;;;5.97;;
13743;SDS011;6943;52.368;9.966;2024-02-15T05:17:49;5.90;;;5.30;;
13743;SDS011;6943;52.368;9.966;2024-02-15T05:20:15;5.87;;;5.27;;
13743;SDS011;6943;52.368;9.966;2024-02-15T05:22:41;5.67;;;5.13;;
13743;SDS011;6943;52.368;9.966;2024-02-15T05:25:13;5.67;;;5.10;;
13743;SDS011;6943;52.368;9.966;2024-02-15T05:27:40;6.97;;;5.53;;
13743;SDS011;6943;52.368;9.966;2024-02-15T05:30:08;5.53;;;4.90;;
13743;SDS011;6943;52.368;9.966;2024-02-15T05:32:36;6.33;;;5.13;;
13743;SDS011;6943;52.368;9.966;2024-02-15T05:35:08;5.90;;;5.27;;
13743;SDS011;6943;52.368;9.966;2024-02-15T05:37:35;6.20;;;5.33;;
13743;SDS011;6943;52.368;9.966;2024-02-15T05:40:01;7.50;;;6.80;;
13743;SDS011;6943;52.368;9.966;2024-02-15T05:42:27;6.20;;;5.60;;
13743;SDS011;6943;52.368;9.966;2024-02-15T05:44:53;5.63;;;4.80;;
13743;SDS011;6943;52.368;9.966;2024-02-15T05:47:19;9.37;;;5.00;;
13743;SDS011;6943;52.368;9.966;2024-02-15T05:49:45;7.90;;;5.00;;
13743;SDS011;6943;52.368;9.966;2024-02-15T05:52:12;6.37;;;5.70;;
13743;SDS011;6943;52.368;9.966;2024-02-15T05:54:38;6.30;;;5.67;;
13743;SDS011;6943;52.368;9.966;2024-02-15T05:57:06;6.00;;;5.40;;
13743;SDS011;6943;52.368;9.966;2024-02-15T05:59:32;6.60;;;5.93;;
13743;SDS011;6943;52.368;9.966;2024-02-15T06:01:58;6.60;;;5.73;;
13743;SDS011;6943;52.368;9.966;2024-02-15T06:04:24;6.70;;;6.10;;
13743;SDS011;6943;52.368;9.966;2024-02-15T06:06:51;7.00;;;6.30;;
13743;SDS011;6943;52.368;9.966;2024-02-15T06:09:18;7.30;;;6.40;;
13743;SDS011;6943;52.368;9.966;2024-02-15T06:11:47;7.57;;;6.87;;
13743;SDS011;6943;52.368;9.966;2024-02-15T06:14:12;8.27;;;7.17;;
13743;SDS011;6943;52.368;9.966;2024-02-15T06:16:44;7.43;;;6.50;;
13743;SDS011;6943;52.368;9.966;2024-02-15T06:19:10;8.30;;;6.67;;
13743;SDS011;6943;52.368;9.966;2024-02-15T06:21:36;7.80;;;7.00;;
13743;SDS011;6943;52.368;9.966;2024-02-15T06:24:02;8.97;;;7.33;;
13743;SDS011;6943;52.368;9.966;2024-02-15T06:26:28;8.03;;;7.23;;
13743;SDS011;6943;52.368;9.966;2024-02-15T06:28:54;8.90;;;7.67;;
13743;SDS011;6943;52.368;9.966;2024-02-15T06:31:39;10.03;;;8.07;;
13743;SDS011;6943;52.368;9.966;2024-02-15T06:34:24;8.97;;;7.90;;
13743;SDS011;6943;52.368;9.966;2024-02-15T06:37:08;7.53;;;6.77;;
13743;SDS011;6943;52.368;9.966;2024-02-15T06:39:53;9.23;;;7.17;;
13743;SDS011;6943;52.368;9.966;2024-02-15T06:42:19;8.60;;;7.60;;
13743;SDS011;6943;52.368;9.966;2024-02-15T06:44:45;8.57;;;7.60;;
13743;SDS011;6943;52.368;9.966;2024-02-15T06:47:11;10.20;;;8.43;;
13743;SDS011;6943;52.368;9.966;2024-02-15T06:49:38;10.93;;;8.37;;
13743;SDS011;6943;52.368;9.966;2024-02-15T06:52:08;9.93;;;8.40;;
13743;SDS011;6943;52.368;9.966;2024-02-15T06:54:36;12.27;;;10.13;;
13743;SDS011;6943;52.368;9.966;2024-02-15T06:57:03;11.93;;;9.60;;
13743;SDS011;6943;52.368;9.966;2024-02-15T06:59:29;12.77;;;10.27;;
13743;SDS011;6943;52.368;9.966;2024-02-15T07:01:57;11.03;;;9.80;;
13743;SDS011;6943;52.368;9.966;2024-02-15T07:04:23;11.27;;;10.07;;
13743;SDS011;6943;52.368;9.966;2024-02-15T07:06:50;11.70;;;10.00;;
13743;SDS011;6943;52.368;9.966;2024-02-15T07:09:17;10.67;;;9.50;;
13743;SDS011;6943;52.368;9.966;2024-02-15T07:11:44;11.23;;;10.03;;
13743;SDS011;6943;52.368;9.966;2024-02-15T07:14:11;12.37;;;10.03;;
13743;SDS011;6943;52.368;9.966;2024-02-15T07:16:37;13.80;;;10.40;;
13743;SDS011;6943;52.368;9.966;2024-02-15T07:19:03;11.80;;;10.37;;
13743;SDS011;6943;52.368;9.966;2024-02-15T07:21:30;13.07;;;10.83;;
13743;SDS011;6943;52.368;9.966;2024-02-15T07:23:56;12.63;;;10.27;;
13743;SDS011;6943;52.368;9.966;2024-02-15T07:26:25;11.33;;;9.93;;
13743;SDS011;6943;52.368;9.966;2024-02-15T07:28:53;11.17;;;9.80;;
13743;SDS011;6943;52.368;9.966;2024-02-15T07:31:22;12.73;;;9.23;;
13743;SDS011;6943;52.368;9.966;2024-02-15T07:33:48;14.03;;;9.83;;
13743;SDS011;6943;52.368;9.966;2024-02-15T07:36:19;12.17;;;8.73;;
13743;SDS011;6943;52.368;9.966;2024-02-15T07:38:46;10.70;;;8.70;;
13743;SDS011;6943;52.368;9.966;2024-02-15T07:41:13;9.93;;;7.97;;
13743;SDS011;6943;52.368;9.966;2024-02-15T07:43:39;11.27;;;8.23;;
13743;SDS011;6943;52.368;9.966;2024-02-15T07:46:05;10.37;;;9.00;;
13743;SDS011;6943;52.368;9.966;2024-02-15T07:48:32;11.07;;;7.80;;
13743;SDS011;6943;52.368;9.966;2024-02-15T07:50:58;13.97;;;8.83;;
13743;SDS011;6943;52.368;9.966;2024-02-15T07:53:24;11.37;;;8.60;;
13743;SDS011;6943;52.368;9.966;2024-02-15T07:55:50;11.33;;;8.50;;
13743;SDS011;6943;52.368;9.966;2024-02-15T07:58:16;10.33;;;7.87;;
13743;SDS011;6943;52.368;9.966;2024-02-15T08:00:44;10.67;;;7.20;;
13743;SDS011;6943;52.368;9.966;2024-02-15T08:03:10;8.13;;;7.30;;
13743;SDS011;6943;52.368;9.966;2024-02-15T08:05:36;8.07;;;7.27;;
13743;SDS011;6943;52.368;9.966;2024-02-15T08:08:03;8.70;;;7.10;;
13743;SDS011;6943;52.368;9.966;2024-02-15T08:10:29;7.60;;;6.17;;
13743;SDS011;6943;52.368;9.966;2024-02-15T08:12:55;10.20;;;7.07;;
13743;SDS011;6943;52.368;9.966;2024-02-15T08:15:23;10.00;;;6.00;;
13743;SDS011;6943;52.368;9.966;2024-02-15T08:17:49;8.63;;;6.03;;
13743;SDS011;6943;52.368;9.966;2024-02-15T08:20:15;10.40;;;7.10;;
13743;SDS011;6943;52.368;9.966;2024-02-15T08:22:46;8.23;;;6.17;;
13743;SDS011;6943;52.368;9.966;2024-02-15T08:25:12;9.73;;;5.90;;
13743;SDS011;6943;52.368;9.966;2024-02-15T08:27:40;9.97;;;5.70;;
13743;SDS011;6943;52.368;9.966;2024-02-15T08:30:09;9.43;;;6.10;;
13743;SDS011;6943;52.368;9.966;2024-02-15T08:32:35;9.07;;;5.90;;
13743;SDS011;6943;52.368;9.966;2024-02-15T08:35:01;7.67;;;5.20;;
13743;SDS011;6943;52.368;9.966;2024-02-15T08:37:29;6.93;;;5.27;;
13743;SDS011;6943;52.368;9.966;2024-02-15T08:39:57;5.87;;;4.37;;
13743;SDS011;6943;52.368;9.966;2024-02-15T08:42:23;6.40;;;4.67;;
13743;SDS011;6943;52.368;9.966;2024-02-15T08:44:49;8.50;;;4.90;;
13743;SDS011;6943;52.368;9.966;2024-02-15T08:47:16;8.73;;;5.27;;
13743;SDS011;6943;52.368;9.966;2024-02-15T08:49:42;8.60;;;4.90;;
13743;SDS011;6943;52.368;9.966;2024-02-15T08:52:08;10.80;;;4.93;;
13743;SDS011;6943;52.368;9.966;2024-02-15T08:54:34;7.93;;;4.43;;
13743;SDS011;6943;52.368;9.966;2024-02-15T08:57:00;4.70;;;3.70;;
13743;SDS011;6943;52.368;9.966;2024-02-15T08:59:26;9.37;;;4.80;;
13743;SDS011;6943;52.368;9.966;2024-02-15T09:01:53;7.73;;;4.07;;
13743;SDS011;6943;52.368;9.966;2024-02-15T09:04:19;5.80;;;4.40;;
13743;SDS011;6943;52.368;9.966;2024-02-15T09:06:48;8.30;;;4.37;;
13743;SDS011;6943;52.368;9.966;2024-02-15T09:09:14;6.80;;;4.47;;
13743;SDS011;6943;52.368;9.966;2024-02-15T09:11:40;4.63;;;3.33;;
13743;SDS011;6943;52.368;9.966;2024-02-15T09:14:06;4.07;;;3.10;;
13743;SDS011;6943;52.368;9.966;2024-02-15T09:16:35;6.07;;;3.40;;
13743;SDS011;6943;52.368;9.966;2024-02-15T09:19:01;5.67;;;3.40;;
13743;SDS011;6943;52.368;9.966;2024-02-15T09:21:27;4.30;;;3.50;;
13743;SDS011;6943;52.368;9.966;2024-02-15T09:23:54;4.07;;;3.00;;
13743;SDS011;6943;52.368;9.966;2024-02-15T09:26:21;3.33;;;3.03;;
13743;SDS011;6943;52.368;9.966;2024-02-15T09:28:47;5.07;;;3.10;;
13743;SDS011;6943;52.368;9.966;2024-02-15T09:31:13;3.33;;;3.03;;
13743;SDS011;6943;52.368;9.966;2024-02-15T09:33:39;4.43;;;3.50;;
13743;SDS011;6943;52.368;9.966;2024-02-15T09:36:05;4.03;;;3.10;;
13743;SDS011;6943;52.368;9.966;2024-02-15T09:38:31;4.67;;;2.40;;
13743;SDS011;6943;52.368;9.966;2024-02-15T09:40:57;4.57;;;2.03;;
13743;SDS011;6943;52.368;9.966;2024-02-15T09:43:23;3.70;;;2.20;;
13743;SDS011;6943;52.368;9.966;2024-02-15T09:45:51;4.87;;;2.23;;
13743;SDS011;6943;52.368;9.966;2024-02-15T09:48:17;3.90;;;2.27;;
13743;SDS011;6943;52.368;9.966;2024-02-15T09:50:46;3.07;;;1.97;;
13743;SDS011;6943;52.368;9.966;2024-02-15T09:53:12;4.53;;;1.80;;
13743;SDS011;6943;52.368;9.966;2024-02-15T09:55:40;6.33;;;1.97;;
13743;SDS011;6943;52.368;9.966;2024-02-15T09:58:06;3.57;;;1.80;;
13743;SDS011;6943;52.368;9.966;2024-02-15T10:00:34;2.67;;;2.00;;
13743;SDS011;6943;52.368;9.966;2024-02-15T10:03:00;2.93;;;2.00;;
13743;SDS011;6943;52.368;9.966;2024-02-15T10:05:26;4.83;;;2.00;;
13743;SDS011;6943;52.368;9.966;2024-02-15T10:07:52;2.27;;;1.77;;
13743;SDS011;6943;52.368;9.966;2024-02-15T10:10:19;4.33;;;1.97;;
13743;SDS011;6943;52.368;9.966;2024-02-15T10:12:46;2.90;;;2.00;;
13743;SDS011;6943;52.368;9.966;2024-02-15T10:15:27;3.80;;;2.00;;
13743;SDS011;6943;52.368;9.966;2024-02-15T10:17:57;3.00;;;1.80;;
13743;SDS011;6943;52.368;9.966;2024-02-15T10:20:26;5.73;;;2.43;;
13743;SDS011;6943;52.368;9.966;2024-02-15T10:25:25;3.00;;;1.60;;
13743;SDS011;6943;52.368;9.966;2024-02-15T10:27:52;2.13;;;1.50;;
13743;SDS011;6943;52.368;9.966;2024-02-15T10:30:27;2.50;;;1.67;;
13743;SDS011;6943;52.368;9.966;2024-02-15T10:32:54;2.40;;;1.70;;
13743;SDS011;6943;52.368;9.966;2024-02-15T10:35:22;4.73;;;1.80;;
13743;SDS011;6943;52.368;9.966;2024-02-15T10:37:49;3.10;;;1.73;;
13743;SDS011;6943;52.368;9.966;2024-02-15T10:40:18;2.40;;;1.60;;
13743;SDS011;6943;52.368;9.966;2024-02-15T10:42:46;2.93;;;2.20;;
13743;SDS011;6943;52.368;9.966;2024-02-15T10:45:12;3.73;;;1.67;;
13743;SDS011;6943;52.368;9.966;2024-02-15T10:47:42;2.67;;;1.50;;
13743;SDS011;6943;52.368;9.966;2024-02-15T10:50:09;2.70;;;1.67;;
13743;SDS011;6943;52.368;9.966;2024-02-15T10:52:35;3.33;;;1.50;;
13743;SDS011;6943;52.368;9.966;2024-02-15T10:55:04;2.70;;;1.77;;
13743;SDS011;6943;52.368;9.966;2024-02-15T10:57:34;4.23;;;2.20;;
13743;SDS011;6943;52.368;9.966;2024-02-15T11:00:01;2.77;;;2.27;;
13743;SDS011;6943;52.368;9.966;2024-02-15T11:02:42;5.30;;;2.40;;
13743;SDS011;6943;52.368;9.966;2024-02-15T11:05:09;3.60;;;2.00;;
13743;SDS011;6943;52.368;9.966;2024-02-15T11:07:35;4.07;;;2.00;;
13743;SDS011;6943;52.368;9.966;2024-02-15T11:10:06;4.97;;;2.57;;
13743;SDS011;6943;52.368;9.966;2024-02-15T11:12:36;3.97;;;2.53;;
13743;SDS011;6943;52.368;9.966;2024-02-15T11:15:02;5.27;;;2.43;;
13743;SDS011;6943;52.368;9.966;2024-02-15T11:20:05;5.27;;;3.20;;
13743;SDS011;6943;52.368;9.966;2024-02-15T11:22:34;4.23;;;2.90;;
13743;SDS011;6943;52.368;9.966;2024-02-15T11:25:04;4.13;;;2.47;;
13743;SDS011;6943;52.368;9.966;2024-02-15T11:27:37;6.77;;;2.37;;
13743;SDS011;6943;52.368;9.966;2024-02-15T11:30:04;4.50;;;2.53;;
13743;SDS011;6943;52.368;9.966;2024-02-15T11:32:46;4.17;;;2.20;;
13743;SDS011;6943;52.368;9.966;2024-02-15T11:35:17;2.97;;;2.00;;
13743;SDS011;6943;52.368;9.966;2024-02-15T11:43:06;3.53;;;2.40;;
13743;SDS011;6943;52.368;9.966;2024-02-15T11:45:33;2.57;;;2.37;;
13743;SDS011;6943;52.368;9.966;2024-02-15T11:48:03;2.97;;;2.67;;
13743;SDS011;6943;52.368;9.966;2024-02-15T11:50:35;6.33;;;2.60;;
13743;SDS011;6943;52.368;9.966;2024-02-15T11:53:03;4.93;;;2.63;;
13743;SDS011;6943;52.368;9.966;2024-02-15T11:55:35;3.90;;;2.10;;
13743;SDS011;6943;52.368;9.966;2024-02-15T11:58:03;3.30;;;2.37;;
13743;SDS011;6943;52.368;9.966;2024-02-15T12:00:35;5.03;;;2.10;;
13743;SDS011;6943;52.368;9.966;2024-02-15T12:03:20;4.57;;;2.40;;
13743;SDS011;6943;52.368;9.966;2024-02-15T12:06:05;4.37;;;2.80;;
13743;SDS011;6943;52.368;9.966;2024-02-15T12:08:51;5.73;;;2.50;;
13743;SDS011;6943;52.368;9.966;2024-02-15T12:11:36;4.63;;;2.57;;
13743;SDS011;6943;52.368;9.966;2024-02-15T12:14:21;3.77;;;2.63;;
13743;SDS011;6943;52.368;9.966;2024-02-15T12:17:11;2.80;;;2.50;;
13743;SDS011;6943;52.368;9.966;2024-02-15T12:19:57;7.07;;;2.90;;
13743;SDS011;6943;52.368;9.966;2024-02-15T12:22:24;3.17;;;2.57;;
13743;SDS011;6943;52.368;9.966;2024-02-15T12:24:54;3.80;;;2.00;;
13743;SDS011;6943;52.368;9.966;2024-02-15T12:27:21;3.37;;;1.90;;
13743;SDS011;6943;52.368;9.966;2024-02-15T12:29:57;2.80;;;2.07;;
13743;SDS011;6943;52.368;9.966;2024-02-15T12:32:23;3.03;;;1.77;;
13743;SDS011;6943;52.368;9.966;2024-02-15T12:34:50;3.80;;;1.60;;
13743;SDS011;6943;52.368;9.966;2024-02-15T12:37:19;2.07;;;1.47;;
13743;SDS011;6943;52.368;9.966;2024-02-15T12:39:46;1.57;;;1.40;;
13743;SDS011;6943;52.368;9.966;2024-02-15T12:42:12;2.60;;;1.70;;
13743;SDS011;6943;52.368;9.966;2024-02-15T12:44:42;3.27;;;1.90;;
13743;SDS011;6943;52.368;9.966;2024-02-15T12:47:16;3.37;;;1.90;;
13743;SDS011;6943;52.368;9.966;2024-02-15T12:49:42;4.07;;;2.03;;
13743;SDS011;6943;52.368;9.966;2024-02-15T12:55:05;3.47;;;1.73;;
13743;SDS011;6943;52.368;9.966;2024-02-15T12:57:33;2.30;;;1.63;;
13743;SDS011;6943;52.368;9.966;2024-02-15T13:00:01;3.17;;;1.90;;
13743;SDS011;6943;52.368;9.966;2024-02-15T13:02:35;2.57;;;1.80;;
13743;SDS011;6943;52.368;9.966;2024-02-15T13:05:02;1.70;;;1.60;;
13743;SDS011;6943;52.368;9.966;2024-02-15T13:07:28;3.83;;;1.70;;
13743;SDS011;6943;52.368;9.966;2024-02-15T13:09:54;2.47;;;1.50;;
13743;SDS011;6943;52.368;9.966;2024-02-15T13:12:20;2.63;;;1.77;;
13743;SDS011;6943;52.368;9.966;2024-02-15T13:14:46;3.17;;;1.80;;
13743;SDS011;6943;52.368;9.966;2024-02-15T13:17:15;2.23;;;1.73;;
13743;SDS011;6943;52.368;9.966;2024-02-15T13:19:48;2.27;;;1.67;;
13743;SDS011;6943;52.368;9.966;2024-02-15T13:22:14;3.33;;;1.80;;
13743;SDS011;6943;52.368;9.966;2024-02-15T13:24:41;2.20;;;1.53;;
13743;SDS011;6943;52.368;9.966;2024-02-15T13:27:07;2.13;;;1.57;;
13743;SDS011;6943;52.368;9.966;2024-02-15T13:29:37;3.10;;;1.50;;
13743;SDS011;6943;52.368;9.966;2024-02-15T13:32:03;2.70;;;1.67;;
13743;SDS011;6943;52.368;9.966;2024-02-15T13:34:30;2.43;;;1.50;;
13743;SDS011;6943;52.368;9.966;2024-02-15T13:36:58;2.50;;;1.60;;
13743;SDS011;6943;52.368;9.966;2024-02-15T13:39:26;1.80;;;1.37;;
13743;SDS011;6943;52.368;9.966;2024-02-15T13:41:51;2.27;;;1.50;;
13743;SDS011;6943;52.368;9.966;2024-02-15T13:44:17;1.60;;;1.50;;
13743;SDS011;6943;52.368;9.966;2024-02-15T13:46:44;3.20;;;1.50;;
13743;SDS011;6943;52.368;9.966;2024-02-15T13:49:11;1.90;;;1.43;;
13743;SDS011;6943;52.368;9.966;2024-02-15T13:51:38;1.50;;;1.30;;
13743;SDS011;6943;52.368;9.966;2024-02-15T13:54:04;3.73;;;1.50;;
13743;SDS011;6943;52.368;9.966;2024-02-15T13:56:30;3.00;;;2.00;;
13743;SDS011;6943;52.368;9.966;2024-02-15T13:58:56;3.80;;;1.50;;
13743;SDS011;6943;52.368;9.966;2024-02-15T14:01:21;2.53;;;1.60;;
13743;SDS011;6943;52.368;9.966;2024-02-15T14:03:50;2.77;;;1.40;;
13743;SDS011;6943;52.368;9.966;2024-02-15T14:06:17;2.93;;;1.53;;
13743;SDS011;6943;52.368;9.966;2024-02-15T14:08:43;2.20;;;1.50;;
13743;SDS011;6943;52.368;9.966;2024-02-15T14:11:09;2.73;;;1.60;;
13743;SDS011;6943;52.368;9.966;2024-02-15T14:13:35;2.33;;;1.37;;
13743;SDS011;6943;52.368;9.966;2024-02-15T14:16:01;3.10;;;1.40;;
13743;SDS011;6943;52.368;9.966;2024-02-15T14:18:28;2.13;;;1.37;;
13743;SDS011;6943;52.368;9.966;2024-02-15T14:20:54;2.57;;;1.30;;
13743;SDS011;6943;52.368;9.966;2024-02-15T14:23:20;1.87;;;1.20;;
13743;SDS011;6943;52.368;9.966;2024-02-15T14:25:45;2.43;;;1.53;;
13743;SDS011;6943;52.368;9.966;2024-02-15T14:28:11;2.53;;;1.30;;
13743;SDS011;6943;52.368;9.966;2024-02-15T14:30:39;3.60;;;1.43;;
13743;SDS011;6943;52.368;9.966;2024-02-15T14:33:23;1.83;;;1.20;;
13743;SDS011;6943;52.368;9.966;2024-02-15T14:35:50;2.87;;;2.10;;
13743;SDS011;6943;52.368;9.966;2024-02-15T14:38:18;3.00;;;1.90;;
13743;SDS011;6943;52.368;9.966;2024-02-15T14:40:46;3.10;;;1.87;;
13743;SDS011;6943;52.368;9.966;2024-02-15T14:43:22;3.10;;;1.90;;
13743;SDS011;6943;52.368;9.966;2024-02-15T14:45:48;3.53;;;1.60;;
13743;SDS011;6943;52.368;9.966;2024-02-15T14:48:14;2.60;;;1.47;;
13743;SDS011;6943;52.368;9.966;2024-02-15T14:50:42;2.30;;;1.37;;
13743;SDS011;6943;52.368;9.966;2024-02-15T14:53:09;2.87;;;1.53;;
13743;SDS011;6943;52.368;9.966;2024-02-15T14:55:35;3.93;;;1.80;;
13743;SDS011;6943;52.368;9.966;2024-02-15T14:58:04;2.73;;;1.70;;
13743;SDS011;6943;52.368;9.966;2024-02-15T15:00:30;3.43;;;2.10;;
13743;SDS011;6943;52.368;9.966;2024-02-15T15:02:56;4.70;;;1.70;;
13743;SDS011;6943;52.368;9.966;2024-02-15T15:05:22;4.30;;;2.00;;
13743;SDS011;6943;52.368;9.966;2024-02-15T15:08:07;5.37;;;1.97;;
13743;SDS011;6943;52.368;9.966;2024-02-15T15:10:52;2.60;;;2.03;;
13743;SDS011;6943;52.368;9.966;2024-02-15T15:13:37;5.30;;;1.70;;